Time;durP1;ratioP1;P1;durP2;ratioP2;P2;SDS_P1;SDS_P2;PMS_P1;PMS_P2;Temp;Humidity;BMP_temperature;BMP_pressure;BME280_temperature;BME280_humidity;BME280_pressure;Samples;Min_cycle;Max_cycle;Signal;HPM_P1;HPM_P2
2021/04/30 00:02:21;;;;;;;9.45;6.82;;;12.90;71.60;;;;;;4945720;29;20422;-65
2021/04/30 00:04:46;;;;;;;8.85;6.15;;;12.90;71.60;;;;;;4945236;29;20043;-66
2021/04/30 00:07:12;;;;;;;9.85;5.57;;;12.90;71.60;;;;;;4945334;29;20047;-65
2021/04/30 00:09:37;;;;;;;9.55;5.70;;;13.00;71.50;;;;;;4945275;29;20091;-66
2021/04/30 00:12:03;;;;;;;9.50;5.45;;;12.90;71.70;;;;;;4947215;29;20087;-66
2021/04/30 00:14:29;;;;;;;8.73;5.70;;;12.90;71.80;;;;;;4945686;29;20042;-66
2021/04/30 00:16:54;;;;;;;7.82;5.72;;;12.90;71.50;;;;;;4945034;29;20031;-66
2021/04/30 00:19:20;;;;;;;7.10;5.78;;;12.80;71.90;;;;;;4944985;29;20208;-66
2021/04/30 00:21:45;;;;;;;6.28;5.15;;;12.80;71.90;;;;;;4945169;29;20043;-66
2021/04/30 00:24:12;;;;;;;6.88;5.35;;;12.90;71.80;;;;;;4947077;29;20213;-65
2021/04/30 00:26:38;;;;;;;7.35;5.30;;;12.80;72.00;;;;;;4945021;29;20111;-66
2021/04/30 00:29:04;;;;;;;8.50;5.55;;;12.90;71.80;;;;;;4945471;29;20083;-66
2021/04/30 00:31:29;;;;;;;8.63;5.70;;;12.90;71.70;;;;;;4945034;29;20103;-66
2021/04/30 00:33:56;;;;;;;8.40;5.75;;;12.80;71.60;;;;;;4945268;29;20039;-65
2021/04/30 00:36:22;;;;;;;9.65;5.45;;;12.80;71.70;;;;;;4944667;29;20043;-66
2021/04/30 00:38:47;;;;;;;7.40;5.65;;;12.80;71.80;;;;;;4946846;29;20091;-66
2021/04/30 00:41:13;;;;;;;7.70;5.25;;;12.90;71.10;;;;;;4945296;29;20285;-66
2021/04/30 00:43:38;;;;;;;9.30;5.75;;;12.80;71.20;;;;;;4944847;29;20039;-66
2021/04/30 00:46:04;;;;;;;7.03;5.57;;;12.80;71.40;;;;;;4944600;29;20043;-65
2021/04/30 00:48:29;;;;;;;10.05;5.50;;;12.90;71.40;;;;;;4928023;29;20082;-66
2021/04/30 00:50:55;;;;;;;8.35;5.40;;;12.80;71.40;;;;;;4947055;29;20035;-66
2021/04/30 00:53:21;;;;;;;7.85;5.68;;;12.80;71.60;;;;;;4945064;29;20050;-66
2021/04/30 00:55:46;;;;;;;8.55;5.80;;;12.80;71.80;;;;;;4927798;29;20036;-66
2021/04/30 00:58:12;;;;;;;8.27;5.07;;;12.70;71.70;;;;;;4944582;29;20065;-66
2021/04/30 01:00:37;;;;;;;6.25;5.20;;;12.70;72.00;;;;;;4945279;29;20326;-66
2021/04/30 01:03:07;;;;;;;7.88;5.72;;;12.80;71.50;;;;;;4946445;29;20275;-66
2021/04/30 01:05:33;;;;;;;8.35;5.30;;;12.70;71.70;;;;;;4928074;29;20352;-66
2021/04/30 01:07:58;;;;;;;13.38;5.75;;;12.70;71.30;;;;;;4945098;29;20091;-66
2021/04/30 01:10:24;;;;;;;7.82;5.40;;;12.70;71.50;;;;;;4927848;29;20035;-66
2021/04/30 01:12:50;;;;;;;7.53;4.90;;;12.80;71.60;;;;;;4928145;29;20038;-66
2021/04/30 01:15:16;;;;;;;8.32;6.15;;;12.80;71.40;;;;;;4945888;29;20041;-68
2021/04/30 01:17:42;;;;;;;7.47;5.28;;;12.70;71.50;;;;;;4945854;29;20131;-66
2021/04/30 01:20:08;;;;;;;8.65;4.90;;;12.80;71.50;;;;;;4944678;29;20334;-65
2021/04/30 01:22:44;;;;;;;6.05;5.05;;;12.90;71.20;;;;;;4944752;29;20314;-65
2021/04/30 01:25:12;;;;;;;8.90;4.82;;;12.90;71.50;;;;;;4944743;29;20103;-65
2021/04/30 01:27:37;;;;;;;7.35;5.07;;;12.80;71.40;;;;;;4928053;29;20140;-66
2021/04/30 01:30:05;;;;;;;6.07;4.88;;;12.80;71.70;;;;;;4946713;29;20215;-66
2021/04/30 01:32:31;;;;;;;7.03;5.53;;;12.80;71.90;;;;;;4946656;29;20220;-66
2021/04/30 01:34:56;;;;;;;6.85;4.93;;;12.80;71.90;;;;;;4931298;29;20032;-66
2021/04/30 01:37:24;;;;;;;6.82;4.68;;;12.80;71.50;;;;;;4947935;29;20036;-66
2021/04/30 01:39:50;;;;;;;6.43;5.03;;;12.80;71.50;;;;;;4947670;29;20040;-65
2021/04/30 01:42:15;;;;;;;6.43;4.78;;;12.80;71.30;;;;;;4949569;29;20374;-65
2021/04/30 01:44:41;;;;;;;6.50;5.30;;;12.70;71.50;;;;;;4948248;29;20078;-65
2021/04/30 01:47:06;;;;;;;7.60;5.05;;;12.60;72.00;;;;;;4948010;29;20043;-65
2021/04/30 01:49:32;;;;;;;6.35;4.88;;;12.70;71.70;;;;;;4930903;29;20234;-65
2021/04/30 01:51:57;;;;;;;5.75;4.63;;;12.70;71.40;;;;;;4947686;29;20330;-65
2021/04/30 01:54:23;;;;;;;7.15;4.80;;;12.80;71.30;;;;;;4947876;29;20255;-66
2021/04/30 01:56:49;;;;;;;6.72;4.93;;;12.80;71.30;;;;;;4949095;29;20294;-65
2021/04/30 01:59:14;;;;;;;7.32;5.05;;;12.80;71.20;;;;;;4947780;29;20098;-66
2021/04/30 02:01:40;;;;;;;5.63;4.40;;;12.70;71.30;;;;;;4947239;29;20050;-66
2021/04/30 02:04:10;;;;;;;6.13;4.68;;;12.70;71.40;;;;;;4947495;29;20275;-66
2021/04/30 02:06:39;;;;;;;7.07;4.88;;;12.80;71.20;;;;;;4930802;29;20062;-65
2021/04/30 02:09:06;;;;;;;6.53;4.70;;;12.60;71.80;;;;;;4949320;29;20024;-65
2021/04/30 02:11:32;;;;;;;6.63;4.85;;;12.60;71.80;;;;;;4947884;29;20083;-65
2021/04/30 02:13:58;;;;;;;6.93;5.38;;;12.60;72.10;;;;;;4930498;29;20036;-66
2021/04/30 02:16:23;;;;;;;6.18;4.80;;;12.60;72.00;;;;;;4947409;29;20086;-66
2021/04/30 02:18:49;;;;;;;5.78;5.00;;;12.70;71.90;;;;;;4947138;29;20047;-66
2021/04/30 02:21:14;;;;;;;6.38;4.85;;;12.60;72.30;;;;;;4931784;29;20032;-65
2021/04/30 02:23:40;;;;;;;5.93;4.50;;;12.60;72.30;;;;;;4947166;29;20044;-65
2021/04/30 02:26:06;;;;;;;8.18;4.85;;;12.60;72.00;;;;;;4945591;29;20062;-65
2021/04/30 02:28:32;;;;;;;5.90;4.70;;;12.60;72.20;;;;;;4947048;29;20039;-65
2021/04/30 02:30:57;;;;;;;7.68;5.25;;;12.60;71.90;;;;;;4947062;29;20063;-65
2021/04/30 02:33:23;;;;;;;8.95;5.07;;;12.60;72.00;;;;;;4930097;29;20028;-65
2021/04/30 02:35:49;;;;;;;6.78;4.60;;;12.60;72.00;;;;;;4932198;29;20116;-65
2021/04/30 02:38:16;;;;;;;5.95;4.80;;;12.70;71.80;;;;;;4947291;29;20043;-65
2021/04/30 02:40:42;;;;;;;7.72;5.03;;;12.70;71.70;;;;;;4946844;29;20106;-66
2021/04/30 02:43:11;;;;;;;7.28;4.75;;;12.80;71.60;;;;;;4946148;29;20086;-65
2021/04/30 02:45:36;;;;;;;7.45;4.50;;;12.80;71.70;;;;;;4946574;29;20052;-65
2021/04/30 02:48:02;;;;;;;7.90;4.82;;;12.90;71.40;;;;;;4948630;29;20036;-65
2021/04/30 02:50:29;;;;;;;6.88;4.72;;;12.90;71.50;;;;;;4930255;29;20040;-65
2021/04/30 02:52:55;;;;;;;6.72;5.00;;;12.80;71.50;;;;;;4947028;29;20144;-65
2021/04/30 02:55:21;;;;;;;7.90;4.55;;;12.80;71.60;;;;;;4946585;29;20223;-65
2021/04/30 02:57:51;;;;;;;7.97;5.18;;;12.80;71.40;;;;;;4946366;29;20044;-66
2021/04/30 03:00:17;;;;;;;8.93;5.93;;;12.70;71.80;;;;;;4929158;29;20027;-66
2021/04/30 03:02:42;;;;;;;6.20;4.80;;;12.60;72.00;;;;;;4948337;29;20020;-66
2021/04/30 03:05:08;;;;;;;6.18;4.82;;;12.70;71.90;;;;;;4946396;29;20346;-66
2021/04/30 03:07:34;;;;;;;6.78;5.43;;;12.70;72.20;;;;;;4929942;29;20040;-65
2021/04/30 03:10:00;;;;;;;6.22;5.00;;;12.70;72.20;;;;;;4929105;29;20098;-65
2021/04/30 03:12:25;;;;;;;8.50;5.47;;;12.60;72.10;;;;;;4946743;29;20331;-65
2021/04/30 03:14:51;;;;;;;7.00;5.20;;;12.60;72.40;;;;;;4947756;29;20031;-65
2021/04/30 03:17:16;;;;;;;6.25;5.18;;;12.60;72.60;;;;;;4945304;29;20062;-65
2021/04/30 03:19:42;;;;;;;7.07;5.18;;;12.60;72.90;;;;;;4946368;29;20361;-67
2021/04/30 03:22:07;;;;;;;7.63;5.60;;;12.60;72.40;;;;;;4946177;29;20042;-65
2021/04/30 03:24:33;;;;;;;7.07;4.95;;;12.60;72.60;;;;;;4929344;29;20036;-65
2021/04/30 03:26:59;;;;;;;7.22;5.47;;;12.60;72.80;;;;;;4930782;29;20043;-65
2021/04/30 03:29:24;;;;;;;6.85;5.00;;;12.60;72.90;;;;;;4946397;29;20036;-65
2021/04/30 03:31:50;;;;;;;8.55;5.47;;;12.50;73.10;;;;;;4945912;29;20223;-65
2021/04/30 03:34:15;;;;;;;10.10;5.25;;;12.60;72.80;;;;;;4945885;29;20031;-65
2021/04/30 03:36:41;;;;;;;8.60;5.30;;;12.50;72.70;;;;;;4945439;29;20035;-65
2021/04/30 03:39:07;;;;;;;6.90;4.82;;;12.50;72.60;;;;;;4947711;29;20055;-65
2021/04/30 03:41:33;;;;;;;7.20;5.80;;;12.60;72.50;;;;;;4946279;29;20040;-65
2021/04/30 03:43:59;;;;;;;7.78;5.35;;;12.60;72.60;;;;;;4928966;29;20040;-65
2021/04/30 03:46:24;;;;;;;6.85;5.63;;;12.60;72.60;;;;;;4945625;29;20067;-65
2021/04/30 03:48:50;;;;;;;7.03;5.20;;;12.60;72.50;;;;;;4945776;29;20028;-65
2021/04/30 03:51:15;;;;;;;7.35;5.75;;;12.50;72.70;;;;;;4945335;29;20034;-68
2021/04/30 03:53:41;;;;;;;8.85;5.85;;;12.50;72.70;;;;;;4946902;29;20302;-66
2021/04/30 03:56:07;;;;;;;6.90;5.10;;;12.50;72.60;;;;;;4945146;29;20331;-66
2021/04/30 03:58:32;;;;;;;8.65;5.55;;;12.50;72.70;;;;;;4928627;29;20394;-65
2021/04/30 04:00:58;;;;;;;7.47;5.95;;;12.50;72.80;;;;;;4945362;29;20196;-65
2021/04/30 04:03:23;;;;;;;7.53;5.78;;;12.50;72.80;;;;;;4945463;29;20028;-66
2021/04/30 04:05:49;;;;;;;7.45;5.38;;;12.50;72.80;;;;;;4946944;29;20142;-66
2021/04/30 04:08:15;;;;;;;10.02;6.10;;;12.50;72.80;;;;;;4913181;29;20043;-65
2021/04/30 04:10:40;;;;;;;8.70;5.60;;;12.50;72.70;;;;;;4945707;29;20091;-65
2021/04/30 04:13:20;;;;;;;6.75;5.25;;;12.60;72.50;;;;;;4945409;29;20054;-65
2021/04/30 04:15:45;;;;;;;8.18;5.93;;;12.60;72.60;;;;;;4928361;29;20267;-65
2021/04/30 04:18:11;;;;;;;9.30;6.38;;;12.60;72.60;;;;;;4946793;29;20035;-65
2021/04/30 04:20:37;;;;;;;9.90;6.43;;;12.60;72.70;;;;;;4945460;29;20044;-65
2021/04/30 04:23:02;;;;;;;8.40;6.00;;;12.50;73.00;;;;;;4945245;29;20042;-65
2021/04/30 04:25:29;;;;;;;8.63;6.30;;;12.60;72.80;;;;;;4927958;29;20036;-65
2021/04/30 04:27:54;;;;;;;8.52;6.20;;;12.60;72.70;;;;;;4928496;29;20058;-65
2021/04/30 04:30:20;;;;;;;7.68;5.75;;;12.40;73.20;;;;;;4927474;29;20075;-64
2021/04/30 04:32:47;;;;;;;9.52;6.05;;;12.40;73.30;;;;;;4930191;29;20024;-65
2021/04/30 04:35:13;;;;;;;10.27;6.05;;;12.40;73.00;;;;;;4927252;29;20040;-65
2021/04/30 04:37:39;;;;;;;7.93;6.30;;;12.40;72.60;;;;;;4912721;29;20039;-65
2021/04/30 04:40:05;;;;;;;8.38;6.72;;;12.50;72.50;;;;;;4944823;29;20059;-65
2021/04/30 04:42:30;;;;;;;10.75;6.93;;;12.30;73.00;;;;;;4927891;29;20031;-65
2021/04/30 04:44:56;;;;;;;11.15;7.45;;;12.40;73.50;;;;;;4946732;29;20040;-65
2021/04/30 04:47:22;;;;;;;9.05;6.35;;;12.30;73.70;;;;;;4945144;29;20046;-66
2021/04/30 04:49:47;;;;;;;10.18;7.07;;;12.40;73.90;;;;;;4945187;29;20039;-65
2021/04/30 04:52:13;;;;;;;9.90;7.60;;;12.40;73.70;;;;;;4928045;29;20028;-65
2021/04/30 04:54:39;;;;;;;8.82;6.72;;;12.40;73.80;;;;;;4944985;29;20031;-65
2021/04/30 04:57:04;;;;;;;11.52;7.60;;;12.50;73.90;;;;;;4946359;29;20057;-65
2021/04/30 04:59:30;;;;;;;12.77;7.65;;;12.50;74.20;;;;;;4945216;29;20040;-65
2021/04/30 05:01:56;;;;;;;10.25;7.43;;;12.60;74.00;;;;;;4928122;29;20031;-64
2021/04/30 05:04:21;;;;;;;10.73;7.38;;;12.60;73.70;;;;;;4945302;29;20096;-65
2021/04/30 05:06:47;;;;;;;9.80;7.45;;;12.60;73.40;;;;;;4947479;29;20046;-66
2021/04/30 05:09:13;;;;;;;9.82;6.95;;;12.70;73.90;;;;;;4933293;29;20035;-65
2021/04/30 05:11:38;;;;;;;11.55;7.93;;;12.60;74.20;;;;;;4931717;29;20044;-64
2021/04/30 05:14:04;;;;;;;15.82;10.60;;;12.70;74.00;;;;;;4948360;29;20083;-65
2021/04/30 05:16:29;;;;;;;14.57;11.15;;;12.70;73.20;;;;;;4948560;29;20035;-64
2021/04/30 05:18:55;;;;;;;15.48;11.93;;;12.70;72.80;;;;;;4931558;29;20242;-64
2021/04/30 05:21:21;;;;;;;16.48;11.35;;;12.60;72.80;;;;;;4931461;29;20063;-66
2021/04/30 05:23:47;;;;;;;15.82;11.57;;;12.70;72.90;;;;;;4950211;29;20032;-65
2021/04/30 05:26:12;;;;;;;16.77;11.45;;;12.70;72.30;;;;;;4948637;29;20163;-65
2021/04/30 05:28:38;;;;;;;17.52;12.88;;;12.60;72.60;;;;;;4931767;29;20075;-64
2021/04/30 05:31:03;;;;;;;14.60;11.85;;;12.70;72.50;;;;;;4948039;29;20087;-64
2021/04/30 05:33:29;;;;;;;15.60;12.13;;;12.70;72.30;;;;;;4947655;29;20035;-64
2021/04/30 05:35:54;;;;;;;15.35;11.85;;;12.70;72.20;;;;;;4932839;29;20086;-66
2021/04/30 05:38:20;;;;;;;17.40;12.90;;;12.70;72.00;;;;;;4948461;29;20055;-65
2021/04/30 05:40:46;;;;;;;17.27;12.48;;;12.80;72.00;;;;;;4931220;29;20040;-65
2021/04/30 05:43:11;;;;;;;19.05;14.18;;;12.70;72.20;;;;;;4884149;29;20035;-65
2021/04/30 05:45:40;;;;;;;21.58;14.07;;;12.70;72.60;;;;;;4931179;29;20350;-65
2021/04/30 05:48:07;;;;;;;23.30;14.65;;;12.70;72.30;;;;;;4949769;29;20349;-65
2021/04/30 05:50:33;;;;;;;18.70;14.30;;;12.70;72.00;;;;;;4915557;29;20373;-65
2021/04/30 05:52:59;;;;;;;21.98;14.93;;;12.80;71.90;;;;;;4947463;29;20035;-66
2021/04/30 05:55:24;;;;;;;22.33;17.30;;;12.80;71.50;;;;;;4947962;29;20087;-64
2021/04/30 05:57:50;;;;;;;23.05;15.40;;;12.70;71.90;;;;;;4930848;29;20051;-65
2021/04/30 06:00:16;;;;;;;21.60;15.52;;;12.80;72.20;;;;;;4949220;29;20337;-66
2021/04/30 06:02:41;;;;;;;19.90;15.07;;;12.80;71.60;;;;;;4930890;29;20027;-64
2021/04/30 06:05:08;;;;;;;26.45;16.40;;;12.80;71.80;;;;;;4947845;29;20353;-64
2021/04/30 06:07:33;;;;;;;22.90;15.50;;;12.80;71.90;;;;;;4947485;29;20031;-64
2021/04/30 06:09:59;;;;;;;21.65;16.60;;;12.80;72.10;;;;;;4946129;29;20357;-64
2021/04/30 06:12:25;;;;;;;21.73;15.80;;;12.80;71.50;;;;;;4948094;29;20102;-65
2021/04/30 06:14:50;;;;;;;23.38;16.05;;;12.70;71.60;;;;;;4948917;29;20219;-65
2021/04/30 06:17:18;;;;;;;26.17;16.35;;;12.80;71.60;;;;;;4946701;29;20056;-66
2021/04/30 06:19:45;;;;;;;25.95;17.98;;;12.80;71.20;;;;;;4946960;29;20354;-65
2021/04/30 06:22:11;;;;;;;22.67;16.60;;;12.80;71.20;;;;;;4928656;29;20054;-65
2021/04/30 06:24:37;;;;;;;23.13;17.08;;;12.80;71.30;;;;;;4898338;29;20404;-65
2021/04/30 06:27:02;;;;;;;27.90;17.77;;;12.80;71.60;;;;;;4948540;29;20259;-64
2021/04/30 06:29:28;;;;;;;26.08;18.38;;;12.80;71.50;;;;;;4945960;29;20040;-67
2021/04/30 06:31:55;;;;;;;24.73;18.40;;;12.80;71.50;;;;;;4946724;29;20338;-65
2021/04/30 06:34:20;;;;;;;25.25;18.30;;;12.80;71.10;;;;;;4947021;29;20031;-65
2021/04/30 06:36:46;;;;;;;26.45;17.15;;;12.80;70.90;;;;;;4947218;29;20268;-64
2021/04/30 06:39:12;;;;;;;26.55;17.63;;;12.90;70.70;;;;;;4948674;29;20034;-65
2021/04/30 06:41:37;;;;;;;27.27;18.38;;;12.90;70.70;;;;;;4947345;29;20039;-64
2021/04/30 06:44:04;;;;;;;27.98;18.40;;;12.90;70.40;;;;;;4947061;29;20323;-64
2021/04/30 06:46:29;;;;;;;27.70;18.85;;;12.80;70.90;;;;;;4946718;29;20244;-65
2021/04/30 06:48:55;;;;;;;26.55;18.30;;;12.90;71.10;;;;;;4946929;29;20042;-65
2021/04/30 06:51:21;;;;;;;26.70;17.30;;;12.90;70.80;;;;;;4946826;29;20259;-65
2021/04/30 06:53:47;;;;;;;25.02;16.80;;;12.90;70.50;;;;;;4948835;29;20047;-64
2021/04/30 06:56:12;;;;;;;25.50;17.88;;;12.90;70.70;;;;;;4946994;29;20215;-65
2021/04/30 06:58:38;;;;;;;24.98;17.92;;;13.00;70.80;;;;;;4946588;29;20099;-65
2021/04/30 07:01:04;;;;;;;26.42;17.50;;;13.10;70.70;;;;;;4946200;29;20035;-65
2021/04/30 07:03:30;;;;;;;22.75;16.67;;;13.40;71.40;;;;;;4945894;29;20036;-65
2021/04/30 07:05:56;;;;;;;28.70;17.45;;;13.50;71.00;;;;;;4948210;29;20031;-65
2021/04/30 07:08:21;;;;;;;26.17;16.88;;;13.50;69.60;;;;;;4946815;29;20260;-64
2021/04/30 07:10:47;;;;;;;21.02;15.15;;;13.70;69.20;;;;;;4945307;29;20098;-64
2021/04/30 07:13:16;;;;;;;21.48;16.17;;;13.70;68.80;;;;;;4946402;29;20031;-64
2021/04/30 07:15:41;;;;;;;22.70;15.35;;;13.70;68.40;;;;;;4945964;29;20042;-64
2021/04/30 07:18:07;;;;;;;20.80;15.40;;;13.80;68.30;;;;;;4934289;29;20035;-65
2021/04/30 07:20:34;;;;;;;24.23;16.40;;;13.90;67.50;;;;;;4945622;29;20338;-64
2021/04/30 07:23:03;;;;;;;22.15;16.00;;;14.10;67.20;;;;;;4943440;29;20040;-65
2021/04/30 07:25:29;;;;;;;21.40;15.55;;;14.00;66.90;;;;;;4945350;29;20091;-65
2021/04/30 07:27:54;;;;;;;21.42;16.15;;;14.20;66.70;;;;;;4947868;29;20031;-65
2021/04/30 07:30:20;;;;;;;20.90;15.20;;;14.60;66.50;;;;;;4944504;29;20045;-65
2021/04/30 07:32:46;;;;;;;22.02;15.68;;;14.80;64.40;;;;;;4945712;29;20035;-64
2021/04/30 07:35:11;;;;;;;21.77;14.57;;;15.00;64.80;;;;;;4946100;29;20063;-66
2021/04/30 07:37:40;;;;;;;22.52;14.60;;;15.10;64.20;;;;;;4945831;29;20031;-67
2021/04/30 07:40:07;;;;;;;21.23;14.98;;;15.00;63.40;;;;;;4947729;29;20028;-66
2021/04/30 07:42:32;;;;;;;25.00;15.77;;;14.90;63.00;;;;;;4945532;29;20039;-66
2021/04/30 07:44:58;;;;;;;22.50;15.27;;;14.80;63.00;;;;;;4945830;29;20044;-66
2021/04/30 07:47:23;;;;;;;24.88;15.65;;;14.90;63.20;;;;;;4945812;29;20031;-67
2021/04/30 07:49:49;;;;;;;21.10;15.38;;;15.10;64.10;;;;;;4913050;29;20054;-66
2021/04/30 07:52:15;;;;;;;20.30;15.48;;;15.30;64.00;;;;;;4947218;29;20038;-67
2021/04/30 07:54:40;;;;;;;23.45;15.93;;;15.40;63.60;;;;;;4945359;29;20248;-66
2021/04/30 07:57:06;;;;;;;23.13;15.38;;;15.50;64.00;;;;;;4945450;29;20048;-65
2021/04/30 07:59:32;;;;;;;24.92;15.15;;;15.70;63.60;;;;;;4943973;29;20038;-66
2021/04/30 08:01:58;;;;;;;20.85;14.55;;;15.70;63.20;;;;;;4928544;29;20330;-66
2021/04/30 08:04:24;;;;;;;20.80;14.90;;;15.80;62.50;;;;;;4945668;29;20074;-66
2021/04/30 08:06:50;;;;;;;20.85;14.68;;;15.90;62.80;;;;;;4947165;29;20035;-66
2021/04/30 08:09:15;;;;;;;19.65;14.68;;;16.10;62.00;;;;;;4944736;29;20039;-66
2021/04/30 08:11:41;;;;;;;18.75;14.10;;;16.20;61.50;;;;;;4945242;29;20083;-65
2021/04/30 08:14:08;;;;;;;24.73;14.18;;;16.20;60.10;;;;;;4945606;29;20032;-66
2021/04/30 08:16:37;;;;;;;18.98;13.60;;;16.10;59.50;;;;;;4928251;29;20051;-65
2021/04/30 08:19:03;;;;;;;21.85;13.40;;;16.10;59.70;;;;;;4930486;29;20334;-67
2021/04/30 08:21:29;;;;;;;20.23;13.18;;;15.90;59.30;;;;;;4945197;29;20036;-67
2021/04/30 08:23:55;;;;;;;19.75;13.70;;;15.90;59.50;;;;;;4928629;29;20039;-65
2021/04/30 08:26:20;;;;;;;17.15;13.02;;;15.90;60.00;;;;;;4944679;29;20071;-66
2021/04/30 08:28:47;;;;;;;18.75;13.85;;;15.80;60.00;;;;;;4944854;29;20047;-67
2021/04/30 08:31:12;;;;;;;22.33;13.57;;;15.80;60.20;;;;;;4946717;29;20040;-67
2021/04/30 08:33:38;;;;;;;17.42;12.05;;;15.90;60.10;;;;;;4945156;29;20060;-66
2021/04/30 08:36:04;;;;;;;19.58;13.52;;;16.10;59.60;;;;;;4944903;29;20265;-66
2021/04/30 08:38:29;;;;;;;24.00;12.60;;;16.10;59.30;;;;;;4945240;29;20035;-66
2021/04/30 08:40:57;;;;;;;18.58;12.85;;;16.30;60.10;;;;;;4944554;29;20051;-66
2021/04/30 08:43:23;;;;;;;21.75;14.60;;;16.30;59.60;;;;;;4944697;29;20083;-67
2021/04/30 08:45:51;;;;;;;17.55;12.88;;;16.30;59.20;;;;;;4946747;29;20036;-67
2021/04/30 08:48:17;;;;;;;18.73;12.63;;;16.30;59.50;;;;;;4928403;29;20039;-67
2021/04/30 08:50:42;;;;;;;15.88;13.07;;;16.60;60.00;;;;;;4944012;29;20044;-67
2021/04/30 08:53:08;;;;;;;14.02;11.25;;;16.80;59.50;;;;;;4944441;29;20087;-67
2021/04/30 08:55:34;;;;;;;16.48;10.82;;;16.60;57.70;;;;;;4944878;29;20115;-68
2021/04/30 08:57:59;;;;;;;16.05;11.95;;;16.60;58.00;;;;;;4946290;29;20079;-67
2021/04/30 09:00:26;;;;;;;17.33;12.35;;;16.70;58.60;;;;;;4912657;29;20103;-66
2021/04/30 09:02:52;;;;;;;16.98;11.10;;;16.50;58.80;;;;;;4943958;29;20211;-67
2021/04/30 09:05:25;;;;;;;15.50;12.10;;;16.50;58.40;;;;;;4944327;29;20072;-67
2021/04/30 09:07:52;;;;;;;18.05;11.90;;;16.50;58.30;;;;;;4927760;29;20039;-68
2021/04/30 09:10:19;;;;;;;21.67;13.70;;;16.50;58.80;;;;;;4929735;29;20083;-67
2021/04/30 09:12:49;;;;;;;15.85;12.55;;;16.30;59.20;;;;;;4945474;29;20032;-66
2021/04/30 09:15:21;;;;;;;16.17;12.50;;;16.40;59.50;;;;;;4898272;29;20087;-67
2021/04/30 09:17:47;;;;;;;21.17;12.82;;;16.40;59.60;;;;;;4944822;29;20043;-67
2021/04/30 09:20:13;;;;;;;13.40;9.48;;;16.40;60.00;;;;;;4944413;29;20071;-67
2021/04/30 09:22:41;;;;;;;9.95;7.70;;;16.50;58.70;;;;;;4944212;29;20083;-68
2021/04/30 09:25:08;;;;;;;10.55;7.97;;;16.60;58.20;;;;;;4946071;29;20035;-68
2021/04/30 09:27:37;;;;;;;10.90;6.80;;;16.50;57.90;;;;;;4928030;29;20374;-67
2021/04/30 09:30:26;;;;;;;8.48;6.88;;;16.60;57.70;;;;;;4944278;29;20063;-66
2021/04/30 09:33:04;;;;;;;10.82;6.57;;;16.70;56.30;;;;;;4927518;29;20039;-67
2021/04/30 09:35:30;;;;;;;6.68;5.40;;;16.90;57.20;;;;;;4944361;29;20040;-68
2021/04/30 09:37:58;;;;;;;8.70;6.40;;;16.90;55.80;;;;;;4944346;29;20035;-69
2021/04/30 09:40:30;;;;;;;7.90;5.93;;;17.10;56.40;;;;;;4944618;29;20031;-68
2021/04/30 09:43:05;;;;;;;6.65;5.78;;;17.10;55.60;;;;;;4946080;29;20095;-68
2021/04/30 09:45:32;;;;;;;6.75;5.63;;;17.20;55.00;;;;;;4927786;29;20040;-69
2021/04/30 09:47:59;;;;;;;8.25;5.70;;;17.20;54.70;;;;;;4944227;29;20067;-69
2021/04/30 09:50:26;;;;;;;6.93;5.03;;;17.20;55.00;;;;;;4944210;29;20031;-68
2021/04/30 09:52:56;;;;;;;6.38;5.30;;;17.30;53.90;;;;;;4945487;29;20231;-68
2021/04/30 09:55:22;;;;;;;8.30;6.00;;;17.40;54.30;;;;;;4947423;29;20040;-69
2021/04/30 09:57:50;;;;;;;24.67;13.57;;;17.50;54.90;;;;;;4949036;29;20429;-69
2021/04/30 10:00:16;;;;;;;51.90;21.05;;;17.50;54.80;;;;;;4930588;29;20043;-69
2021/04/30 10:02:44;;;;;;;14.65;7.82;;;17.60;53.70;;;;;;4947597;29;20039;-70
2021/04/30 10:05:18;;;;;;;14.35;8.38;;;17.70;54.40;;;;;;4947261;29;20036;-69
2021/04/30 10:07:44;;;;;;;20.25;12.50;;;17.90;55.40;;;;;;4947671;29;20120;-69
2021/04/30 10:10:17;;;;;;;25.92;14.50;;;18.00;54.00;;;;;;4949024;29;20039;-69
2021/04/30 10:12:47;;;;;;;32.50;16.50;;;17.90;53.40;;;;;;4930170;29;20056;-69
2021/04/30 10:15:14;;;;;;;83.47;35.75;;;18.00;53.80;;;;;;4947647;29;20223;-71
2021/04/30 10:17:39;;;;;;;44.60;22.10;;;18.10;54.40;;;;;;4947648;29;20047;-71
2021/04/30 10:20:06;;;;;;;13.93;7.35;;;18.10;53.70;;;;;;4930440;29;20144;-71
2021/04/30 10:22:34;;;;;;;9.75;6.38;;;18.20;53.50;;;;;;4947177;29;20059;-70
2021/04/30 10:24:59;;;;;;;10.02;5.70;;;18.10;52.80;;;;;;4949129;29;20327;-69
2021/04/30 10:27:36;;;;;;;7.57;5.35;;;18.00;52.30;;;;;;4930632;29;20043;-69
2021/04/30 10:30:23;;;;;;;8.07;5.30;;;18.10;53.40;;;;;;4947087;29;20040;-69
2021/04/30 10:33:22;;;;;;;6.90;4.88;;;18.10;53.50;;;;;;4947364;29;20059;-69
2021/04/30 10:35:56;;;;;;;7.00;5.10;;;18.30;52.40;;;;;;4947046;29;20083;-69
2021/04/30 10:38:23;;;;;;;6.13;5.30;;;18.40;52.70;;;;;;4930471;29;20039;-69
2021/04/30 10:41:05;;;;;;;6.72;5.07;;;18.60;52.50;;;;;;4930026;29;20036;-68
2021/04/30 10:43:31;;;;;;;9.18;5.22;;;18.70;52.70;;;;;;4946949;29;20098;-68
2021/04/30 10:46:21;;;;;;;9.52;4.97;;;18.80;52.10;;;;;;4948338;29;20035;-68
2021/04/30 10:49:08;;;;;;;8.13;5.38;;;19.00;51.90;;;;;;4936177;29;20039;-67
2021/04/30 10:51:38;;;;;;;5.72;4.68;;;19.10;50.50;;;;;;4947085;29;20379;-67
2021/04/30 10:54:26;;;;;;;12.05;5.03;;;19.10;51.40;;;;;;4946385;29;20040;-67
2021/04/30 10:56:59;;;;;;;13.95;6.65;;;19.20;49.80;;;;;;4929606;29;20055;-67
2021/04/30 10:59:29;;;;;;;7.00;4.75;;;19.20;49.10;;;;;;4946559;29;20034;-66
2021/04/30 11:02:01;;;;;;;6.45;4.90;;;19.20;51.30;;;;;;4946824;29;20315;-65
2021/04/30 11:04:27;;;;;;;6.57;4.88;;;19.10;49.80;;;;;;4946558;29;20030;-66
2021/04/30 11:06:53;;;;;;;9.32;5.25;;;19.20;49.80;;;;;;4948269;29;20035;-65
2021/04/30 11:09:29;;;;;;;6.75;5.20;;;19.20;50.00;;;;;;4946950;29;20079;-65
2021/04/30 11:11:57;;;;;;;6.80;4.80;;;19.20;49.60;;;;;;4946566;29;20040;-64
2021/04/30 11:14:32;;;;;;;7.43;4.70;;;19.00;49.10;;;;;;4929847;29;20031;-66
2021/04/30 11:16:59;;;;;;;5.22;4.40;;;19.10;49.60;;;;;;4946077;29;20087;-68
2021/04/30 11:19:26;;;;;;;7.07;5.43;;;19.20;50.20;;;;;;4929519;29;20035;-66
2021/04/30 11:21:56;;;;;;;9.88;5.63;;;19.20;50.60;;;;;;4948019;29;20024;-65
2021/04/30 11:24:28;;;;;;;6.25;5.10;;;19.10;51.40;;;;;;4945776;29;20238;-66
2021/04/30 11:27:19;;;;;;;8.77;5.13;;;19.30;51.50;;;;;;4946126;29;20047;-65
2021/04/30 11:29:45;;;;;;;7.20;5.40;;;19.60;51.00;;;;;;4945810;29;20044;-66
2021/04/30 11:32:24;;;;;;;5.65;4.22;;;19.70;50.40;;;;;;4945853;29;20086;-67
2021/04/30 11:34:56;;;;;;;5.80;5.20;;;19.80;50.30;;;;;;4946279;29;20036;-66
2021/04/30 11:37:22;;;;;;;6.88;5.05;;;20.00;49.00;;;;;;4946265;29;20066;-67
2021/04/30 11:39:48;;;;;;;6.00;5.05;;;20.00;48.90;;;;;;4947419;29;20219;-67
2021/04/30 11:42:14;;;;;;;8.90;5.55;;;20.00;49.60;;;;;;4945911;29;20043;-66
2021/04/30 11:44:40;;;;;;;8.18;5.53;;;20.10;49.50;;;;;;4945577;29;20106;-68
2021/04/30 11:47:06;;;;;;;6.70;4.97;;;20.10;48.70;;;;;;4945281;29;20046;-66
2021/04/30 11:49:33;;;;;;;7.00;4.05;;;20.20;49.00;;;;;;4945724;29;20035;-67
2021/04/30 11:51:59;;;;;;;6.90;4.35;;;20.10;47.50;;;;;;4947451;29;20060;-65
2021/04/30 11:54:31;;;;;;;8.52;5.15;;;20.10;47.80;;;;;;4945916;29;20040;-65
2021/04/30 11:57:01;;;;;;;6.93;4.80;;;20.10;47.60;;;;;;4945069;29;20118;-65
2021/04/30 11:59:27;;;;;;;6.80;4.50;;;20.20;48.30;;;;;;4929402;29;20036;-65
2021/04/30 12:01:57;;;;;;;6.68;4.60;;;20.30;48.30;;;;;;4928872;29;20334;-65
2021/04/30 12:04:36;;;;;;;7.88;4.68;;;20.30;47.00;;;;;;4945218;29;20038;-64
2021/04/30 12:07:01;;;;;;;7.43;5.10;;;20.30;46.40;;;;;;4946863;29;20083;-65
2021/04/30 12:09:29;;;;;;;7.60;4.97;;;20.30;48.30;;;;;;4928803;29;20081;-65
2021/04/30 12:11:54;;;;;;;7.38;5.00;;;20.30;47.80;;;;;;4945731;29;20040;-66
2021/04/30 12:14:20;;;;;;;6.25;4.30;;;20.30;47.70;;;;;;4945442;29;20099;-65
2021/04/30 12:16:57;;;;;;;5.78;4.40;;;20.50;48.10;;;;;;4928033;29;20051;-65
2021/04/30 12:19:23;;;;;;;6.85;5.22;;;20.60;48.10;;;;;;4945180;29;20346;-65
2021/04/30 12:21:48;;;;;;;7.10;5.20;;;20.70;46.70;;;;;;4930062;29;20035;-65
2021/04/30 12:24:14;;;;;;;4.93;4.18;;;20.80;47.10;;;;;;4945176;29;20038;-65
2021/04/30 12:26:39;;;;;;;6.85;4.13;;;20.80;46.70;;;;;;4945202;29;20052;-65
2021/04/30 12:29:08;;;;;;;7.97;4.90;;;20.70;44.50;;;;;;4945026;29;20060;-66
2021/04/30 12:31:34;;;;;;;6.45;5.03;;;20.80;45.70;;;;;;4944970;29;20082;-65
2021/04/30 12:33:59;;;;;;;5.03;4.10;;;20.80;46.80;;;;;;4946592;29;20039;-65
2021/04/30 12:36:26;;;;;;;5.05;3.55;;;20.80;45.30;;;;;;4945390;29;20040;-65
2021/04/30 12:38:56;;;;;;;5.45;4.40;;;20.90;45.60;;;;;;4945048;29;20083;-66